Terminal Aerodrome Forecast
Issued by NWS

Home | Current Version | Previous Version | Text Only | Print | Product List | Glossary On
Versions: 1 2 3 4 5 6 7 8 9 10 11 12 13 14 15 16 17 18 19
000
FTUS46 KLOX 252352
TAFVNY
TAF
KVNY 252352Z 2600/2624 15010KT P6SM SCT250
     FM260300 14004KT P6SM SCT250
     FM260900 VRB03KT P6SM BKN010
     FM261500 14004KT P6SM BKN015
     FM261800 16009KT P6SM SCT020 SCT250=

USA.gov is the U.S. government's official web portal to all federal, state and local government web resources and services.